sensor_id;sensor_type;location;lat;lon;timestamp;pressure;altitude;pressure_sealevel;temperature;humidity
43071;BME280;36278;47.952;21.714;2023-05-11T00:01:32;100564.09;;;10.26;60.74
43071;BME280;36278;47.952;21.714;2023-05-11T00:03:59;100562.63;;;10.22;61.96
43071;BME280;36278;47.952;21.714;2023-05-11T00:06:24;100563.25;;;10.13;61.85
43071;BME280;36278;47.952;21.714;2023-05-11T00:08:50;100565.69;;;10.16;62.26
43071;BME280;36278;47.952;21.714;2023-05-11T00:11:16;100570.78;;;10.06;62.49
43071;BME280;36278;47.952;21.714;2023-05-11T00:13:43;100567.59;;;10.01;62.11
43071;BME280;36278;47.952;21.714;2023-05-11T00:16:08;100576.06;;;9.93;62.32
43071;BME280;36278;47.952;21.714;2023-05-11T00:18:33;100572.78;;;9.90;62.59
43071;BME280;36278;47.952;21.714;2023-05-11T00:20:59;100577.13;;;9.91;62.51
43071;BME280;36278;47.952;21.714;2023-05-11T00:23:24;100576.81;;;9.82;62.73
43071;BME280;36278;47.952;21.714;2023-05-11T00:25:50;100582.53;;;9.89;62.93
43071;BME280;36278;47.952;21.714;2023-05-11T00:28:15;100573.00;;;9.99;61.90
43071;BME280;36278;47.952;21.714;2023-05-11T00:30:41;100557.66;;;9.92;61.55
43071;BME280;36278;47.952;21.714;2023-05-11T00:33:06;100574.59;;;10.02;61.43
43071;BME280;36278;47.952;21.714;2023-05-11T00:35:31;100566.13;;;9.97;61.74
43071;BME280;36278;47.952;21.714;2023-05-11T00:37:57;100564.00;;;9.89;62.11
43071;BME280;36278;47.952;21.714;2023-05-11T00:40:23;100572.78;;;9.77;62.92
43071;BME280;36278;47.952;21.714;2023-05-11T00:42:48;100570.03;;;9.78;62.70
43071;BME280;36278;47.952;21.714;2023-05-11T00:45:14;100573.53;;;9.79;62.59
43071;BME280;36278;47.952;21.714;2023-05-11T00:47:40;100568.69;;;9.86;62.19
43071;BME280;36278;47.952;21.714;2023-05-11T00:50:06;100572.50;;;9.94;61.94
43071;BME280;36278;47.952;21.714;2023-05-11T00:52:33;100570.88;;;9.92;62.37
43071;BME280;36278;47.952;21.714;2023-05-11T00:54:58;100569.31;;;9.89;62.41
43071;BME280;36278;47.952;21.714;2023-05-11T00:57:24;100567.50;;;9.90;62.54
43071;BME280;36278;47.952;21.714;2023-05-11T00:59:49;100570.25;;;9.88;62.54
43071;BME280;36278;47.952;21.714;2023-05-11T01:02:15;100568.13;;;9.80;62.59
43071;BME280;36278;47.952;21.714;2023-05-11T01:04:41;100582.09;;;9.82;62.75
43071;BME280;36278;47.952;21.714;2023-05-11T01:07:20;100578.06;;;9.77;62.70
43071;BME280;36278;47.952;21.714;2023-05-11T01:12:58;100579.97;;;9.75;63.23
43071;BME280;36278;47.952;21.714;2023-05-11T01:15:31;100583.03;;;9.69;63.24
43071;BME280;36278;47.952;21.714;2023-05-11T01:18:41;100585.34;;;9.61;63.71
43071;BME280;36278;47.952;21.714;2023-05-11T01:21:09;100585.25;;;9.62;64.33
43071;BME280;36278;47.952;21.714;2023-05-11T01:29:37;100582.69;;;9.48;65.42
43071;BME280;36278;47.952;21.714;2023-05-11T01:32:11;100575.38;;;9.39;65.89
43071;BME280;36278;47.952;21.714;2023-05-11T01:34:39;100584.88;;;9.41;65.46
43071;BME280;36278;47.952;21.714;2023-05-11T01:37:17;100584.25;;;9.38;66.29
43071;BME280;36278;47.952;21.714;2023-05-11T01:39:54;100586.97;;;9.36;66.33
43071;BME280;36278;47.952;21.714;2023-05-11T01:42:25;100591.03;;;9.42;66.12
43071;BME280;36278;47.952;21.714;2023-05-11T01:44:54;100587.09;;;9.35;66.34
43071;BME280;36278;47.952;21.714;2023-05-11T01:47:27;100576.94;;;9.29;66.20
43071;BME280;36278;47.952;21.714;2023-05-11T01:49:53;100588.78;;;9.36;66.38
43071;BME280;36278;47.952;21.714;2023-05-11T01:52:24;100587.94;;;9.35;67.21
43071;BME280;36278;47.952;21.714;2023-05-11T01:54:51;100588.53;;;9.26;67.68
43071;BME280;36278;47.952;21.714;2023-05-11T01:57:20;100577.63;;;9.18;67.41
43071;BME280;36278;47.952;21.714;2023-05-11T01:59:46;100587.84;;;9.10;68.57
43071;BME280;36278;47.952;21.714;2023-05-11T02:02:13;100591.56;;;9.07;68.93
43071;BME280;36278;47.952;21.714;2023-05-11T02:04:41;100591.16;;;9.13;69.13
43071;BME280;36278;47.952;21.714;2023-05-11T02:07:09;100592.75;;;9.16;68.46
43071;BME280;36278;47.952;21.714;2023-05-11T02:09:37;100592.53;;;9.19;68.62
43071;BME280;36278;47.952;21.714;2023-05-11T02:12:03;100601.31;;;9.19;69.22
43071;BME280;36278;47.952;21.714;2023-05-11T02:14:31;100598.59;;;9.21;68.76
43071;BME280;36278;47.952;21.714;2023-05-11T02:16:59;100589.88;;;9.19;68.67
43071;BME280;36278;47.952;21.714;2023-05-11T02:19:27;100602.59;;;9.26;68.43
43071;BME280;36278;47.952;21.714;2023-05-11T02:21:54;100601.75;;;9.26;68.95
43071;BME280;36278;47.952;21.714;2023-05-11T02:24:22;100598.47;;;9.22;69.55
43071;BME280;36278;47.952;21.714;2023-05-11T02:26:49;100610.53;;;9.26;69.70
43071;BME280;36278;47.952;21.714;2023-05-11T02:29:14;100605.84;;;9.17;70.63
43071;BME280;36278;47.952;21.714;2023-05-11T02:31:43;100602.75;;;9.11;71.53
43071;BME280;36278;47.952;21.714;2023-05-11T02:34:18;100611.63;;;9.10;71.77
43071;BME280;36278;47.952;21.714;2023-05-11T02:36:51;100601.09;;;8.95;72.27
43071;BME280;36278;47.952;21.714;2023-05-11T02:39:19;100607.16;;;8.97;72.59
43071;BME280;36278;47.952;21.714;2023-05-11T02:41:47;100607.34;;;8.94;73.55
43071;BME280;36278;47.952;21.714;2023-05-11T02:44:15;100606.91;;;8.88;72.99
43071;BME280;36278;47.952;21.714;2023-05-11T02:46:42;100606.25;;;8.84;73.17
43071;BME280;36278;47.952;21.714;2023-05-11T02:49:11;100593.81;;;8.72;74.08
43071;BME280;36278;47.952;21.714;2023-05-11T02:51:42;100607.94;;;8.85;74.16
43071;BME280;36278;47.952;21.714;2023-05-11T02:54:09;100601.06;;;8.83;73.85
43071;BME280;36278;47.952;21.714;2023-05-11T02:56:37;100610.28;;;8.90;74.27
43071;BME280;36278;47.952;21.714;2023-05-11T02:59:03;100593.38;;;8.92;74.47
43071;BME280;36278;47.952;21.714;2023-05-11T03:01:29;100605.16;;;9.01;74.12
43071;BME280;36278;47.952;21.714;2023-05-11T03:03:55;100609.91;;;8.96;73.86
43071;BME280;36278;47.952;21.714;2023-05-11T03:06:20;100608.19;;;8.95;74.63
43071;BME280;36278;47.952;21.714;2023-05-11T03:08:47;100604.06;;;8.91;75.18
43071;BME280;36278;47.952;21.714;2023-05-11T03:11:13;100612.09;;;8.89;74.75
43071;BME280;36278;47.952;21.714;2023-05-11T03:13:43;100614.31;;;8.95;74.33
43071;BME280;36278;47.952;21.714;2023-05-11T03:16:13;100609.13;;;8.94;75.18
43071;BME280;36278;47.952;21.714;2023-05-11T03:18:39;100615.25;;;8.94;75.21
43071;BME280;36278;47.952;21.714;2023-05-11T03:21:05;100608.00;;;8.98;74.56
43071;BME280;36278;47.952;21.714;2023-05-11T03:23:34;100610.91;;;9.08;74.65
43071;BME280;36278;47.952;21.714;2023-05-11T03:26:00;100616.06;;;9.09;74.41
43071;BME280;36278;47.952;21.714;2023-05-11T03:28:26;100613.16;;;9.14;74.13
43071;BME280;36278;47.952;21.714;2023-05-11T03:30:53;100614.94;;;9.13;74.82
43071;BME280;36278;47.952;21.714;2023-05-11T03:33:19;100615.47;;;9.18;74.81
43071;BME280;36278;47.952;21.714;2023-05-11T03:35:48;100617.63;;;9.26;73.93
43071;BME280;36278;47.952;21.714;2023-05-11T03:38:15;100600.78;;;9.14;74.44
43071;BME280;36278;47.952;21.714;2023-05-11T03:40:42;100616.50;;;9.30;73.83
43071;BME280;36278;47.952;21.714;2023-05-11T03:43:14;100591.66;;;9.06;75.42
43071;BME280;36278;47.952;21.714;2023-05-11T03:45:41;100613.97;;;9.29;75.01
43071;BME280;36278;47.952;21.714;2023-05-11T03:48:07;100618.41;;;9.41;73.84
43071;BME280;36278;47.952;21.714;2023-05-11T03:50:35;100621.00;;;9.55;72.72
43071;BME280;36278;47.952;21.714;2023-05-11T03:53:04;100622.59;;;9.58;73.41
43071;BME280;36278;47.952;21.714;2023-05-11T03:55:31;100615.00;;;9.66;72.83
43071;BME280;36278;47.952;21.714;2023-05-11T03:57:57;100627.06;;;9.70;73.44
43071;BME280;36278;47.952;21.714;2023-05-11T04:00:22;100619.38;;;9.79;72.21
43071;BME280;36278;47.952;21.714;2023-05-11T04:02:48;100628.47;;;9.88;71.72
43071;BME280;36278;47.952;21.714;2023-05-11T04:05:14;100623.69;;;9.93;71.99
43071;BME280;36278;47.952;21.714;2023-05-11T04:07:39;100623.91;;;9.90;72.31
43071;BME280;36278;47.952;21.714;2023-05-11T04:10:06;100623.81;;;10.04;72.02
43071;BME280;36278;47.952;21.714;2023-05-11T04:12:31;100614.06;;;10.18;70.78
43071;BME280;36278;47.952;21.714;2023-05-11T04:14:57;100621.75;;;10.35;70.66
43071;BME280;36278;47.952;21.714;2023-05-11T04:17:23;100630.00;;;10.43;70.42
43071;BME280;36278;47.952;21.714;2023-05-11T04:19:48;100635.25;;;10.56;70.39
43071;BME280;36278;47.952;21.714;2023-05-11T04:22:14;100631.88;;;10.54;70.63
43071;BME280;36278;47.952;21.714;2023-05-11T04:24:39;100629.25;;;10.54;71.17
43071;BME280;36278;47.952;21.714;2023-05-11T04:27:05;100625.31;;;10.59;71.21
43071;BME280;36278;47.952;21.714;2023-05-11T04:29:30;100630.91;;;10.68;70.45
43071;BME280;36278;47.952;21.714;2023-05-11T04:31:56;100617.84;;;10.77;70.61
43071;BME280;36278;47.952;21.714;2023-05-11T04:34:21;100632.25;;;10.86;70.06
43071;BME280;36278;47.952;21.714;2023-05-11T04:36:48;100627.97;;;10.96;69.96
43071;BME280;36278;47.952;21.714;2023-05-11T04:39:14;100601.28;;;10.86;69.41
43071;BME280;36278;47.952;21.714;2023-05-11T04:41:41;100624.44;;;11.08;69.25
43071;BME280;36278;47.952;21.714;2023-05-11T04:44:07;100627.03;;;11.21;68.98
43071;BME280;36278;47.952;21.714;2023-05-11T04:46:32;100628.69;;;11.35;68.75
43071;BME280;36278;47.952;21.714;2023-05-11T04:48:58;100634.38;;;11.41;68.18
43071;BME280;36278;47.952;21.714;2023-05-11T04:51:23;100630.59;;;11.57;67.87
43071;BME280;36278;47.952;21.714;2023-05-11T04:53:49;100631.00;;;11.74;66.85
43071;BME280;36278;47.952;21.714;2023-05-11T04:56:14;100630.38;;;11.71;67.15
43071;BME280;36278;47.952;21.714;2023-05-11T04:58:40;100634.94;;;11.82;67.15
43071;BME280;36278;47.952;21.714;2023-05-11T05:01:05;100617.06;;;11.84;66.54
43071;BME280;36278;47.952;21.714;2023-05-11T05:03:31;100623.63;;;12.02;65.75
43071;BME280;36278;47.952;21.714;2023-05-11T05:05:56;100637.16;;;12.21;65.22
43071;BME280;36278;47.952;21.714;2023-05-11T05:08:21;100633.31;;;12.25;65.05
43071;BME280;36278;47.952;21.714;2023-05-11T05:10:47;100633.09;;;12.40;63.92
43071;BME280;36278;47.952;21.714;2023-05-11T05:13:12;100634.19;;;12.48;63.86
43071;BME280;36278;47.952;21.714;2023-05-11T05:15:41;100633.44;;;12.57;63.68
43071;BME280;36278;47.952;21.714;2023-05-11T05:18:06;100625.84;;;12.64;63.20
43071;BME280;36278;47.952;21.714;2023-05-11T05:20:31;100636.72;;;12.72;63.67
43071;BME280;36278;47.952;21.714;2023-05-11T05:22:59;100639.75;;;12.79;62.46
43071;BME280;36278;47.952;21.714;2023-05-11T05:25:25;100631.59;;;12.91;62.48
43071;BME280;36278;47.952;21.714;2023-05-11T05:27:50;100627.34;;;13.00;62.05
43071;BME280;36278;47.952;21.714;2023-05-11T05:30:16;100636.75;;;13.15;61.27
43071;BME280;36278;47.952;21.714;2023-05-11T05:32:41;100635.66;;;13.18;61.22
43071;BME280;36278;47.952;21.714;2023-05-11T05:35:07;100631.91;;;13.32;60.54
43071;BME280;36278;47.952;21.714;2023-05-11T05:37:33;100628.88;;;13.36;60.62
43071;BME280;36278;47.952;21.714;2023-05-11T05:39:58;100636.69;;;13.49;60.25
43071;BME280;36278;47.952;21.714;2023-05-11T05:42:24;100630.72;;;13.57;59.24
43071;BME280;36278;47.952;21.714;2023-05-11T05:44:49;100630.34;;;13.61;59.14
43071;BME280;36278;47.952;21.714;2023-05-11T05:47:15;100635.28;;;13.66;59.41
43071;BME280;36278;47.952;21.714;2023-05-11T05:49:41;100633.28;;;13.79;59.26
43071;BME280;36278;47.952;21.714;2023-05-11T05:52:08;100638.94;;;13.86;59.03
43071;BME280;36278;47.952;21.714;2023-05-11T05:54:34;100634.19;;;13.89;58.52
43071;BME280;36278;47.952;21.714;2023-05-11T05:57:00;100637.38;;;14.04;58.07
43071;BME280;36278;47.952;21.714;2023-05-11T05:59:25;100643.41;;;14.27;56.91
43071;BME280;36278;47.952;21.714;2023-05-11T06:01:51;100637.16;;;14.38;56.91
43071;BME280;36278;47.952;21.714;2023-05-11T06:04:17;100644.31;;;14.58;56.74
43071;BME280;36278;47.952;21.714;2023-05-11T06:06:42;100636.72;;;14.63;56.67
43071;BME280;36278;47.952;21.714;2023-05-11T06:09:08;100638.63;;;14.82;55.98
43071;BME280;36278;47.952;21.714;2023-05-11T06:11:34;100639.22;;;14.95;54.71
43071;BME280;36278;47.952;21.714;2023-05-11T06:13:59;100643.84;;;14.93;55.07
43071;BME280;36278;47.952;21.714;2023-05-11T06:16:25;100647.09;;;14.97;54.76
43071;BME280;36278;47.952;21.714;2023-05-11T06:18:52;100638.53;;;15.03;54.34
43071;BME280;36278;47.952;21.714;2023-05-11T06:21:17;100641.09;;;15.14;54.15
43071;BME280;36278;47.952;21.714;2023-05-11T06:23:43;100633.66;;;15.18;53.80
43071;BME280;36278;47.952;21.714;2023-05-11T06:26:08;100650.50;;;15.08;54.27
43071;BME280;36278;47.952;21.714;2023-05-11T06:28:34;100636.03;;;15.11;53.68
43071;BME280;36278;47.952;21.714;2023-05-11T06:31:00;100634.81;;;15.25;53.29
43071;BME280;36278;47.952;21.714;2023-05-11T06:33:28;100633.38;;;15.21;53.63
43071;BME280;36278;47.952;21.714;2023-05-11T06:35:53;100632.53;;;15.30;53.76
43071;BME280;36278;47.952;21.714;2023-05-11T06:38:19;100630.31;;;15.45;53.45
43071;BME280;36278;47.952;21.714;2023-05-11T06:40:44;100638.47;;;15.53;53.69
43071;BME280;36278;47.952;21.714;2023-05-11T06:43:10;100633.56;;;15.58;53.56
43071;BME280;36278;47.952;21.714;2023-05-11T06:45:35;100642.97;;;15.72;52.86
43071;BME280;36278;47.952;21.714;2023-05-11T06:48:02;100640.88;;;15.85;52.76
43071;BME280;36278;47.952;21.714;2023-05-11T06:50:28;100644.69;;;15.92;52.87
43071;BME280;36278;47.952;21.714;2023-05-11T06:52:53;100642.81;;;16.02;52.39
43071;BME280;36278;47.952;21.714;2023-05-11T06:55:19;100637.34;;;16.13;51.56
43071;BME280;36278;47.952;21.714;2023-05-11T06:57:48;100632.56;;;16.07;52.72
43071;BME280;36278;47.952;21.714;2023-05-11T07:00:13;100647.00;;;16.24;51.74
43071;BME280;36278;47.952;21.714;2023-05-11T07:02:39;100634.59;;;16.33;51.49
43071;BME280;36278;47.952;21.714;2023-05-11T07:05:05;100643.97;;;16.56;51.13
43071;BME280;36278;47.952;21.714;2023-05-11T07:07:30;100636.19;;;16.63;50.27
43071;BME280;36278;47.952;21.714;2023-05-11T07:09:56;100635.19;;;16.64;50.11
43071;BME280;36278;47.952;21.714;2023-05-11T07:12:21;100631.41;;;16.57;49.67
43071;BME280;36278;47.952;21.714;2023-05-11T07:14:47;100635.66;;;16.49;50.29
43071;BME280;36278;47.952;21.714;2023-05-11T07:17:12;100635.94;;;16.56;49.63
43071;BME280;36278;47.952;21.714;2023-05-11T07:19:38;100627.84;;;16.75;49.50
43071;BME280;36278;47.952;21.714;2023-05-11T07:22:03;100627.16;;;16.73;49.54
43071;BME280;36278;47.952;21.714;2023-05-11T07:24:30;100625.41;;;16.82;49.39
43071;BME280;36278;47.952;21.714;2023-05-11T07:26:55;100628.88;;;16.92;49.67
43071;BME280;36278;47.952;21.714;2023-05-11T07:29:21;100629.81;;;17.01;49.57
43071;BME280;36278;47.952;21.714;2023-05-11T07:31:47;100627.09;;;17.11;48.94
43071;BME280;36278;47.952;21.714;2023-05-11T07:34:12;100620.13;;;17.18;48.62
43071;BME280;36278;47.952;21.714;2023-05-11T07:36:38;100616.09;;;17.31;48.33
43071;BME280;36278;47.952;21.714;2023-05-11T07:39:03;100620.44;;;17.50;48.02
43071;BME280;36278;47.952;21.714;2023-05-11T07:41:29;100619.00;;;17.74;47.85
43071;BME280;36278;47.952;21.714;2023-05-11T07:43:55;100620.63;;;17.84;47.92
43071;BME280;36278;47.952;21.714;2023-05-11T07:46:20;100617.00;;;17.93;47.86
43071;BME280;36278;47.952;21.714;2023-05-11T07:48:46;100613.38;;;18.03;46.86
43071;BME280;36278;47.952;21.714;2023-05-11T07:51:11;100618.97;;;18.09;45.54
43071;BME280;36278;47.952;21.714;2023-05-11T07:53:37;100621.22;;;18.22;45.59
43071;BME280;36278;47.952;21.714;2023-05-11T07:56:03;100622.25;;;18.29;44.78
43071;BME280;36278;47.952;21.714;2023-05-11T07:58:29;100614.69;;;18.51;44.58
43071;BME280;36278;47.952;21.714;2023-05-11T08:00:55;100623.50;;;18.69;44.32
43071;BME280;36278;47.952;21.714;2023-05-11T08:03:21;100615.91;;;18.64;43.91
43071;BME280;36278;47.952;21.714;2023-05-11T08:05:47;100613.34;;;18.89;42.42
43071;BME280;36278;47.952;21.714;2023-05-11T08:08:13;100612.91;;;19.01;42.30
43071;BME280;36278;47.952;21.714;2023-05-11T08:10:38;100619.47;;;19.07;41.84
43071;BME280;36278;47.952;21.714;2023-05-11T08:13:04;100620.34;;;19.24;42.03
43071;BME280;36278;47.952;21.714;2023-05-11T08:15:29;100616.50;;;19.35;41.62
43071;BME280;36278;47.952;21.714;2023-05-11T08:17:55;100623.38;;;19.37;39.71
43071;BME280;36278;47.952;21.714;2023-05-11T08:20:21;100623.06;;;19.40;40.41
43071;BME280;36278;47.952;21.714;2023-05-11T08:22:46;100614.50;;;19.53;41.01
43071;BME280;36278;47.952;21.714;2023-05-11T08:25:12;100609.31;;;19.68;40.33
43071;BME280;36278;47.952;21.714;2023-05-11T08:27:37;100610.00;;;19.62;39.74
43071;BME280;36278;47.952;21.714;2023-05-11T08:30:03;100609.50;;;19.66;40.14
43071;BME280;36278;47.952;21.714;2023-05-11T08:32:29;100601.94;;;19.70;39.69
43071;BME280;36278;47.952;21.714;2023-05-11T08:34:55;100590.00;;;19.80;39.50
43071;BME280;36278;47.952;21.714;2023-05-11T08:37:21;100599.38;;;20.09;39.74
43071;BME280;36278;47.952;21.714;2023-05-11T08:39:47;100594.81;;;20.26;39.23
43071;BME280;36278;47.952;21.714;2023-05-11T08:42:15;100592.31;;;20.08;38.72
43071;BME280;36278;47.952;21.714;2023-05-11T08:44:42;100597.28;;;20.35;36.96
43071;BME280;36278;47.952;21.714;2023-05-11T08:47:08;100590.38;;;20.41;35.66
43071;BME280;36278;47.952;21.714;2023-05-11T08:49:34;100587.03;;;20.39;36.94
43071;BME280;36278;47.952;21.714;2023-05-11T08:52:03;100585.53;;;20.53;36.80
43071;BME280;36278;47.952;21.714;2023-05-11T08:54:29;100581.22;;;20.66;36.28
43071;BME280;36278;47.952;21.714;2023-05-11T08:56:55;100588.41;;;20.82;37.22
43071;BME280;36278;47.952;21.714;2023-05-11T08:59:23;100584.66;;;20.91;36.77
43071;BME280;36278;47.952;21.714;2023-05-11T09:01:51;100584.25;;;21.03;36.67
43071;BME280;36278;47.952;21.714;2023-05-11T09:04:18;100587.56;;;21.13;36.23
43071;BME280;36278;47.952;21.714;2023-05-11T09:06:45;100598.06;;;20.99;36.53
43071;BME280;36278;47.952;21.714;2023-05-11T09:09:11;100587.84;;;20.95;36.26
43071;BME280;36278;47.952;21.714;2023-05-11T09:11:37;100592.94;;;21.13;36.23
43071;BME280;36278;47.952;21.714;2023-05-11T09:14:03;100590.78;;;21.08;34.30
43071;BME280;36278;47.952;21.714;2023-05-11T09:16:29;100590.38;;;21.19;34.54
43071;BME280;36278;47.952;21.714;2023-05-11T09:18:59;100574.88;;;20.90;35.33
43071;BME280;36278;47.952;21.714;2023-05-11T09:21:26;100587.19;;;21.16;35.49
43071;BME280;36278;47.952;21.714;2023-05-11T09:23:57;100580.31;;;21.13;35.69
43071;BME280;36278;47.952;21.714;2023-05-11T09:26:24;100587.50;;;21.21;36.19
43071;BME280;36278;47.952;21.714;2023-05-11T09:28:52;100573.47;;;21.34;35.41
43071;BME280;36278;47.952;21.714;2023-05-11T09:34:15;100584.78;;;21.29;33.51
43071;BME280;36278;47.952;21.714;2023-05-11T09:36:45;100576.72;;;21.52;33.10
43071;BME280;36278;47.952;21.714;2023-05-11T09:39:12;100570.16;;;21.69;33.98
43071;BME280;36278;47.952;21.714;2023-05-11T09:41:38;100579.03;;;21.93;33.25
43071;BME280;36278;47.952;21.714;2023-05-11T09:44:12;100579.13;;;21.85;33.63
43071;BME280;36278;47.952;21.714;2023-05-11T09:46:42;100566.50;;;22.00;33.03
43071;BME280;36278;47.952;21.714;2023-05-11T09:49:08;100558.34;;;22.23;33.06
43071;BME280;36278;47.952;21.714;2023-05-11T09:51:36;100564.41;;;21.49;34.17
43071;BME280;36278;47.952;21.714;2023-05-11T09:54:19;100571.44;;;20.74;34.92
43071;BME280;36278;47.952;21.714;2023-05-11T09:56:50;100553.94;;;21.32;34.50
43071;BME280;36278;47.952;21.714;2023-05-11T09:59:17;100557.28;;;21.34;33.76
43071;BME280;36278;47.952;21.714;2023-05-11T10:04:44;100538.47;;;21.86;32.57
43071;BME280;36278;47.952;21.714;2023-05-11T10:07:10;100556.56;;;22.15;32.75
43071;BME280;36278;47.952;21.714;2023-05-11T10:09:35;100547.00;;;22.27;32.54
43071;BME280;36278;47.952;21.714;2023-05-11T10:12:04;100544.00;;;22.52;32.50
43071;BME280;36278;47.952;21.714;2023-05-11T10:14:31;100524.34;;;22.58;32.15
43071;BME280;36278;47.952;21.714;2023-05-11T10:16:57;100514.69;;;22.49;31.21
43071;BME280;36278;47.952;21.714;2023-05-11T10:19:22;100533.19;;;21.55;31.65
43071;BME280;36278;47.952;21.714;2023-05-11T10:21:50;100519.97;;;21.22;31.27
43071;BME280;36278;47.952;21.714;2023-05-11T10:24:16;100520.41;;;21.11;32.71
43071;BME280;36278;47.952;21.714;2023-05-11T10:26:42;100519.97;;;21.22;32.98
43071;BME280;36278;47.952;21.714;2023-05-11T10:29:08;100518.47;;;21.20;33.60
43071;BME280;36278;47.952;21.714;2023-05-11T10:31:34;100520.13;;;21.67;33.13
43071;BME280;36278;47.952;21.714;2023-05-11T10:34:02;100508.81;;;21.86;31.82
43071;BME280;36278;47.952;21.714;2023-05-11T10:36:29;100491.88;;;22.07;31.86
43071;BME280;36278;47.952;21.714;2023-05-11T10:38:55;100507.41;;;21.75;30.79
43071;BME280;36278;47.952;21.714;2023-05-11T10:56:55;100503.13;;;21.81;30.03
43071;BME280;36278;47.952;21.714;2023-05-11T11:02:12;100495.28;;;21.57;30.73
43071;BME280;36278;47.952;21.714;2023-05-11T11:04:49;100490.31;;;22.13;30.76
43071;BME280;36278;47.952;21.714;2023-05-11T11:07:16;100490.31;;;22.27;29.24
43071;BME280;36278;47.952;21.714;2023-05-11T11:09:59;100485.13;;;22.62;29.58
43071;BME280;36278;47.952;21.714;2023-05-11T11:12:28;100476.56;;;22.94;29.55
43071;BME280;36278;47.952;21.714;2023-05-11T11:17:29;100480.13;;;23.44;28.31
43071;BME280;36278;47.952;21.714;2023-05-11T11:20:03;100472.47;;;24.04;28.02
43071;BME280;36278;47.952;21.714;2023-05-11T11:25:13;100472.22;;;23.99;27.21
43071;BME280;36278;47.952;21.714;2023-05-11T11:32:42;100459.00;;;24.72;26.85
43071;BME280;36278;47.952;21.714;2023-05-11T11:38:07;100461.72;;;24.72;27.27
43071;BME280;36278;47.952;21.714;2023-05-11T11:43:41;100466.81;;;25.48;26.95
43071;BME280;36278;47.952;21.714;2023-05-11T11:46:08;100461.56;;;25.92;25.51
43071;BME280;36278;47.952;21.714;2023-05-11T11:48:48;100456.47;;;26.16;25.49
43071;BME280;36278;47.952;21.714;2023-05-11T11:51:14;100455.16;;;26.32;25.77
43071;BME280;36278;47.952;21.714;2023-05-11T11:56:07;100446.41;;;27.06;24.59
43071;BME280;36278;47.952;21.714;2023-05-11T12:01:19;100441.25;;;27.66;23.01
43071;BME280;36278;47.952;21.714;2023-05-11T12:03:46;100444.53;;;28.78;22.83
43071;BME280;36278;47.952;21.714;2023-05-11T12:06:19;100450.00;;;29.43;21.42
43071;BME280;36278;47.952;21.714;2023-05-11T12:08:45;100439.56;;;29.40;21.80
43071;BME280;36278;47.952;21.714;2023-05-11T12:11:16;100437.91;;;29.27;21.78
43071;BME280;36278;47.952;21.714;2023-05-11T12:13:42;100443.59;;;29.26;22.04
43071;BME280;36278;47.952;21.714;2023-05-11T12:16:12;100439.28;;;29.07;22.28
43071;BME280;36278;47.952;21.714;2023-05-11T12:18:38;100442.88;;;28.47;22.72
43071;BME280;36278;47.952;21.714;2023-05-11T12:21:04;100446.69;;;27.66;23.54
43071;BME280;36278;47.952;21.714;2023-05-11T12:23:30;100443.66;;;27.56;23.98
43071;BME280;36278;47.952;21.714;2023-05-11T12:26:03;100438.34;;;26.86;24.53
43071;BME280;36278;47.952;21.714;2023-05-11T12:28:29;100440.91;;;26.81;24.93
43071;BME280;36278;47.952;21.714;2023-05-11T12:30:55;100437.38;;;26.29;26.29
43071;BME280;36278;47.952;21.714;2023-05-11T12:33:21;100420.88;;;26.31;25.18
43071;BME280;36278;47.952;21.714;2023-05-11T12:35:51;100430.63;;;26.51;24.97
43071;BME280;36278;47.952;21.714;2023-05-11T12:38:18;100425.41;;;26.50;24.65
43071;BME280;36278;47.952;21.714;2023-05-11T12:40:47;100427.88;;;27.64;23.53
43071;BME280;36278;47.952;21.714;2023-05-11T12:43:18;100413.88;;;27.86;23.34
43071;BME280;36278;47.952;21.714;2023-05-11T12:45:44;100411.66;;;28.73;22.83
43071;BME280;36278;47.952;21.714;2023-05-11T12:48:11;100421.41;;;27.84;22.92
43071;BME280;36278;47.952;21.714;2023-05-11T12:50:45;100417.44;;;26.04;24.60
43071;BME280;36278;47.952;21.714;2023-05-11T12:53:15;100435.31;;;25.27;25.44
43071;BME280;36278;47.952;21.714;2023-05-11T12:55:41;100410.03;;;25.59;24.94
43071;BME280;36278;47.952;21.714;2023-05-11T12:58:12;100414.13;;;26.02;25.29
43071;BME280;36278;47.952;21.714;2023-05-11T13:00:53;100414.59;;;26.43;24.67
43071;BME280;36278;47.952;21.714;2023-05-11T13:03:22;100406.88;;;27.03;24.23
43071;BME280;36278;47.952;21.714;2023-05-11T13:05:48;100417.28;;;27.13;24.23
43071;BME280;36278;47.952;21.714;2023-05-11T13:08:17;100400.31;;;27.11;24.60
43071;BME280;36278;47.952;21.714;2023-05-11T13:10:42;100403.72;;;27.31;24.61
43071;BME280;36278;47.952;21.714;2023-05-11T13:13:08;100411.06;;;27.49;24.71
43071;BME280;36278;47.952;21.714;2023-05-11T13:15:49;100400.84;;;27.45;24.89
43071;BME280;36278;47.952;21.714;2023-05-11T13:18:15;100393.41;;;27.58;24.02
43071;BME280;36278;47.952;21.714;2023-05-11T13:20:41;100390.50;;;27.10;24.73
43071;BME280;36278;47.952;21.714;2023-05-11T13:23:11;100391.84;;;26.69;24.91
43071;BME280;36278;47.952;21.714;2023-05-11T13:28:17;100398.94;;;25.81;26.21
43071;BME280;36278;47.952;21.714;2023-05-11T13:30:44;100394.00;;;24.78;26.99
43071;BME280;36278;47.952;21.714;2023-05-11T13:33:09;100384.19;;;24.84;27.15
43071;BME280;36278;47.952;21.714;2023-05-11T13:35:42;100392.56;;;25.22;27.41
43071;BME280;36278;47.952;21.714;2023-05-11T13:38:08;100382.53;;;25.29;27.15
43071;BME280;36278;47.952;21.714;2023-05-11T13:40:35;100388.56;;;24.98;27.77